createdAt,value
2023-04-13T00:00:20.784Z,7.7
2023-04-13T00:01:22.174Z,7.6
2023-04-13T00:02:25.028Z,7.6
2023-04-13T00:03:27.977Z,7.6
2023-04-13T00:04:29.537Z,7.6
2023-04-13T00:05:31.563Z,7.6
2023-04-13T00:06:33.139Z,7.6
2023-04-13T00:07:34.765Z,7.6
2023-04-13T00:08:36.299Z,7.6
2023-04-13T00:09:37.853Z,7.6
2023-04-13T00:10:39.408Z,7.6
2023-04-13T00:11:40.785Z,7.6
2023-04-13T00:12:42.169Z,7.6
2023-04-13T00:13:43.777Z,7.6
2023-04-13T00:14:45.327Z,7.6
2023-04-13T00:15:46.779Z,7.6
2023-04-13T00:16:48.618Z,7.6
2023-04-13T00:17:50.614Z,7.6
2023-04-13T00:18:51.911Z,7.6
2023-04-13T00:19:53.429Z,7.6
2023-04-13T00:20:54.969Z,7.6
2023-04-13T00:21:56.549Z,7.6
2023-04-13T00:22:58.163Z,7.6
2023-04-13T00:24:01.044Z,7.6
2023-04-13T00:25:02.728Z,7.6
2023-04-13T00:26:04.154Z,7.5
2023-04-13T00:27:05.744Z,7.5
2023-04-13T00:28:07.237Z,7.5
2023-04-13T00:29:08.771Z,7.5
2023-04-13T00:30:10.374Z,7.6
2023-04-13T00:31:12.340Z,7.6
2023-04-13T00:32:13.757Z,7.6
2023-04-13T00:33:15.557Z,7.6
2023-04-13T00:34:17.094Z,7.6
2023-04-13T00:35:18.475Z,7.5
2023-04-13T00:36:19.975Z,7.4
2023-04-13T00:37:21.379Z,7.4
2023-04-13T00:38:22.882Z,7.2
2023-04-13T00:39:24.260Z,7.2
2023-04-13T00:40:25.896Z,7.1
2023-04-13T00:41:27.383Z,7.2
2023-04-13T00:42:28.659Z,7.1
2023-04-13T00:43:30.176Z,7.2
2023-04-13T00:44:31.608Z,7.2
2023-04-13T00:45:32.979Z,7.1
2023-04-13T00:46:34.719Z,7.2
2023-04-13T00:47:36.463Z,7.1
2023-04-13T00:48:38.116Z,7.2
2023-04-13T00:49:39.718Z,7.1
2023-04-13T00:50:41.133Z,7.1
2023-04-13T00:51:42.613Z,7.1
2023-04-13T00:52:44.129Z,7.2
2023-04-13T00:53:45.629Z,7.1
2023-04-13T00:54:47.031Z,7.1
2023-04-13T00:55:48.560Z,7.1
2023-04-13T00:56:49.939Z,7.1
2023-04-13T00:57:51.620Z,7.1
2023-04-13T00:58:53.277Z,7.1
2023-04-13T00:59:54.827Z,7.1
2023-04-13T01:00:56.347Z,7.2
2023-04-13T01:01:58.524Z,7.1
2023-04-13T01:03:00.642Z,7.2
2023-04-13T01:04:03.321Z,7.1
2023-04-13T01:05:04.777Z,7.1
2023-04-13T01:06:06.226Z,7.2
2023-04-13T01:07:07.796Z,7.1
2023-04-13T01:08:09.594Z,7.1
2023-04-13T01:09:10.898Z,7.2
2023-04-13T01:10:12.307Z,7.2
2023-04-13T01:11:13.734Z,7.1
2023-04-13T01:12:15.131Z,7.1
2023-04-13T01:13:16.520Z,7.2
2023-04-13T01:14:17.929Z,7.2
2023-04-13T01:15:19.462Z,7.1
2023-04-13T01:16:21.612Z,7.2
2023-04-13T01:17:23.505Z,7.2
2023-04-13T01:18:25.106Z,7.2
2023-04-13T01:19:26.746Z,7.2
2023-04-13T01:20:28.320Z,7.2
2023-04-13T01:21:29.881Z,7.2
2023-04-13T01:22:31.409Z,7.2
2023-04-13T01:23:32.967Z,7.2
2023-04-13T01:24:34.502Z,7.2
2023-04-13T01:25:35.923Z,7.2
2023-04-13T01:26:37.440Z,7.2
2023-04-13T01:27:38.934Z,7.2
2023-04-13T01:28:40.322Z,7.2
2023-04-13T01:29:41.978Z,7.1
2023-04-13T01:30:43.526Z,7.2
2023-04-13T01:31:45.475Z,7.2
2023-04-13T01:32:47.338Z,7.1
2023-04-13T01:33:48.357Z,7.2
2023-04-13T01:34:50.003Z,7.1
2023-04-13T01:35:51.593Z,7.2
2023-04-13T01:36:53.074Z,7.2
2023-04-13T01:37:54.662Z,7.1
2023-04-13T01:38:56.192Z,7.2
2023-04-13T01:39:57.708Z,7.2
2023-04-13T01:40:59.285Z,7.2
2023-04-13T01:42:00.726Z,7.2
2023-04-13T01:43:02.317Z,7.2
2023-04-13T01:44:03.992Z,7.2
2023-04-13T01:45:05.504Z,7.2
2023-04-13T01:46:07.302Z,7.2
2023-04-13T01:47:08.845Z,7.2
2023-04-13T01:48:10.142Z,7.2
2023-04-13T01:49:11.599Z,7.2
2023-04-13T01:50:13.065Z,7.3
2023-04-13T01:51:14.654Z,7.3
2023-04-13T01:52:16.187Z,7.3
2023-04-13T01:53:17.561Z,7.4
2023-04-13T01:54:18.968Z,7.5
2023-04-13T01:55:20.489Z,7.5
2023-04-13T01:56:21.735Z,7.6
2023-04-13T01:57:23.263Z,7.6
2023-04-13T01:58:24.816Z,7.7
2023-04-13T01:59:26.299Z,7.7
2023-04-13T02:00:27.650Z,7.7
2023-04-13T02:01:29.543Z,7.7
2023-04-13T02:02:31.908Z,7.7
2023-04-13T02:03:34.049Z,7.6
2023-04-13T02:04:35.487Z,7.5
2023-04-13T02:05:37.092Z,7.3
2023-04-13T02:06:38.709Z,7.2
2023-04-13T02:07:40.254Z,7.2
2023-04-13T02:08:41.895Z,7.1
2023-04-13T02:09:43.407Z,7.1
2023-04-13T02:10:44.903Z,7.1
2023-04-13T02:11:46.435Z,7.1
2023-04-13T02:12:47.969Z,7.1
2023-04-13T02:13:49.581Z,7.1
2023-04-13T02:14:51.107Z,7.1
2023-04-13T02:15:52.604Z,7.1
2023-04-13T02:16:54.575Z,7.1
2023-04-13T02:17:56.421Z,7.1
2023-04-13T02:18:57.955Z,7.1
2023-04-13T02:19:59.201Z,7.1
2023-04-13T02:21:00.806Z,7.2
2023-04-13T02:22:02.518Z,7.2
2023-04-13T02:23:03.764Z,7.2
2023-04-13T02:24:05.134Z,7.2
2023-04-13T02:25:06.660Z,7.2
2023-04-13T02:26:08.097Z,7.2
2023-04-13T02:27:09.533Z,7.2
2023-04-13T02:28:11.065Z,7.1
2023-04-13T02:29:12.458Z,7.1
2023-04-13T02:30:13.880Z,7.1
2023-04-13T02:31:15.687Z,7.1
2023-04-13T02:32:17.513Z,7.1
2023-04-13T02:33:19.028Z,7.1
2023-04-13T02:34:20.555Z,7.1
2023-04-13T02:35:22.055Z,7.1
2023-04-13T02:36:23.749Z,7.1
2023-04-13T02:37:25.213Z,7.1
2023-04-13T02:38:26.722Z,7.1
2023-04-13T02:39:28.096Z,7.1
2023-04-13T02:40:29.602Z,7.1
2023-04-13T02:41:31.332Z,7.1
2023-04-13T02:42:32.745Z,7.1
2023-04-13T02:43:34.425Z,7.2
2023-04-13T02:44:35.951Z,7.2
2023-04-13T02:45:37.777Z,7.2
2023-04-13T02:46:39.353Z,7.2
2023-04-13T02:47:41.167Z,7.2
2023-04-13T02:48:42.648Z,7.2
2023-04-13T02:49:44.234Z,7.2
2023-04-13T02:50:45.654Z,7.2
2023-04-13T02:51:47.240Z,7.2
2023-04-13T02:52:48.834Z,7.2
2023-04-13T02:53:50.373Z,7.2
2023-04-13T02:54:51.939Z,7.2
2023-04-13T02:55:53.494Z,7.2
2023-04-13T02:56:55.070Z,7.2
2023-04-13T02:57:56.587Z,7.3
2023-04-13T02:58:58.130Z,7.3
2023-04-13T02:59:59.510Z,7.3
2023-04-13T03:01:01.304Z,7.4
2023-04-13T03:02:02.948Z,7.5
2023-04-13T03:03:04.911Z,7.5
2023-04-13T03:04:07.286Z,7.6
2023-04-13T03:05:08.685Z,7.7
2023-04-13T03:06:09.987Z,7.8
2023-04-13T03:07:11.638Z,7.8
2023-04-13T03:08:13.230Z,7.9
2023-04-13T03:09:14.636Z,7.9
2023-04-13T03:10:16.151Z,7.5
2023-04-13T03:11:17.669Z,7.6
2023-04-13T03:12:19.218Z,7.8
2023-04-13T03:13:20.762Z,7.9
2023-04-13T03:14:22.259Z,7.4
2023-04-13T03:15:23.782Z,7.5
2023-04-13T03:16:25.496Z,7.7
2023-04-13T03:17:27.326Z,7.9
2023-04-13T03:18:28.948Z,7.9
2023-04-13T03:19:30.427Z,7.9
2023-04-13T03:20:32.089Z,7.9
2023-04-13T03:21:33.462Z,7.9
2023-04-13T03:22:35.141Z,7.9
2023-04-13T03:23:36.750Z,7.9
2023-04-13T03:24:38.018Z,7.9
2023-04-13T03:25:39.525Z,7.9
2023-04-13T03:26:40.946Z,7.9
2023-04-13T03:27:42.580Z,7.9
2023-04-13T03:28:43.974Z,7.9
2023-04-13T03:29:45.257Z,7.9
2023-04-13T03:30:46.852Z,7.9
2023-04-13T03:31:48.718Z,7.2
2023-04-13T03:32:50.604Z,7.4
2023-04-13T03:33:52.220Z,7.5
2023-04-13T03:34:53.666Z,7.6
2023-04-13T03:35:55.092Z,7.7
2023-04-13T03:36:56.629Z,7.8
2023-04-13T03:37:58.295Z,7.8
2023-04-13T03:39:00.000Z,7.9
2023-04-13T03:40:01.724Z,7.9
2023-04-13T03:41:03.337Z,7.9
2023-04-13T03:42:05.006Z,7.9
2023-04-13T03:43:06.557Z,7.9
2023-04-13T03:44:07.922Z,7.9
2023-04-13T03:45:09.368Z,7.9
2023-04-13T03:46:11.103Z,7.9
2023-04-13T03:47:12.513Z,7.9
2023-04-13T03:48:14.059Z,7.9
2023-04-13T03:49:15.461Z,7.9
2023-04-13T03:50:16.925Z,7.9
2023-04-13T03:51:18.433Z,7.2
2023-04-13T03:52:19.916Z,7.3
2023-04-13T03:53:21.578Z,7.3
2023-04-13T03:54:23.185Z,7.4
2023-04-13T03:55:24.627Z,7.5
2023-04-13T03:56:26.016Z,7.5
2023-04-13T03:57:27.460Z,7.6
2023-04-13T03:58:28.837Z,7.6
2023-04-13T03:59:30.250Z,7.7
2023-04-13T04:00:31.919Z,7.8
2023-04-13T04:01:33.473Z,7.8
2023-04-13T04:02:36.032Z,7.9
2023-04-13T04:03:38.530Z,7.9
2023-04-13T04:04:40.301Z,7.9
2023-04-13T04:05:41.554Z,7.9
2023-04-13T04:06:42.946Z,7.9
2023-04-13T04:07:44.442Z,7.9
2023-04-13T04:08:46.123Z,7.9
2023-04-13T04:09:47.840Z,7.9
2023-04-13T04:10:49.256Z,7.9
2023-04-13T04:11:50.612Z,7.9
2023-04-13T04:12:51.979Z,7.9
2023-04-13T04:13:53.467Z,7.9
2023-04-13T04:14:54.972Z,7.9
2023-04-13T04:15:56.831Z,7.8
2023-04-13T04:16:58.399Z,7.8
2023-04-13T04:18:00.000Z,7.8
2023-04-13T04:19:01.589Z,7.8
2023-04-13T04:20:03.217Z,7.7
2023-04-13T04:21:04.604Z,7.6
2023-04-13T04:22:06.020Z,7.5
2023-04-13T04:23:07.520Z,7.4
2023-04-13T04:24:09.234Z,7.2
2023-04-13T04:25:10.696Z,7.1
2023-04-13T04:26:12.195Z,7.1
2023-04-13T04:27:13.606Z,7.1
2023-04-13T04:28:15.002Z,7.1
2023-04-13T04:29:16.358Z,7.1
2023-04-13T04:30:17.594Z,7.1
2023-04-13T04:31:19.394Z,7.1
2023-04-13T04:32:21.240Z,7.1
2023-04-13T04:33:22.514Z,7.1
2023-04-13T04:34:23.939Z,7.1
2023-04-13T04:35:25.331Z,7.1
2023-04-13T04:36:26.861Z,7.1
2023-04-13T04:37:28.238Z,7.1
2023-04-13T04:38:29.623Z,7.1
2023-04-13T04:39:31.261Z,7.1
2023-04-13T04:40:32.772Z,7.1
2023-04-13T04:41:34.333Z,7.1
2023-04-13T04:42:35.596Z,7.2
2023-04-13T04:43:36.993Z,7.2
2023-04-13T04:44:38.371Z,7.2
2023-04-13T04:45:40.041Z,7.2
2023-04-13T04:46:41.496Z,7.2
2023-04-13T04:47:43.683Z,7.2
2023-04-13T04:48:45.165Z,7.2
2023-04-13T04:49:46.697Z,7.2
2023-04-13T04:50:48.132Z,7.2
2023-04-13T04:51:49.664Z,7.2
2023-04-13T04:52:51.180Z,7.2
2023-04-13T04:53:52.721Z,7.2
2023-04-13T04:54:54.248Z,7.3
2023-04-13T04:55:55.518Z,7.3
2023-04-13T04:56:57.024Z,7.4
2023-04-13T04:57:58.627Z,7.5
2023-04-13T04:59:01.756Z,7.6
2023-04-13T05:00:03.353Z,7.7
2023-04-13T05:01:05.237Z,7.9
2023-04-13T05:02:06.841Z,7.9
2023-04-13T05:03:09.012Z,7.9
2023-04-13T05:04:10.180Z,7.9
2023-04-13T05:05:12.078Z,7.6
2023-04-13T05:06:28.348Z,7.8
2023-04-13T09:39:18.414Z,7.1
2023-04-13T09:41:21.784Z,7.1
2023-04-13T09:42:23.390Z,7.1
2023-04-13T09:43:24.935Z,7.1
2023-04-13T09:44:26.596Z,7.1
2023-04-13T09:45:28.127Z,7.1
2023-04-13T09:46:30.052Z,7.1
2023-04-13T09:47:31.994Z,7.1
2023-04-13T09:48:33.614Z,7.1
2023-04-13T09:49:35.302Z,7.1
2023-04-13T09:50:36.695Z,7.1
2023-04-13T09:51:38.415Z,7.1
2023-04-13T09:52:39.816Z,7.1
2023-04-13T09:53:41.357Z,7.1
2023-04-13T10:43:33.673Z,7.9
2023-04-13T10:44:40.486Z,7.8
2023-04-13T10:45:41.871Z,7.8
2023-04-13T10:46:43.419Z,7.8
2023-04-13T10:47:45.367Z,7.8
2023-04-13T10:48:46.913Z,7.8
2023-04-13T10:49:48.454Z,7.8
2023-04-13T10:50:50.110Z,7.8
2023-04-13T10:51:51.695Z,7.9
2023-04-13T10:52:53.250Z,7.9
2023-04-13T10:53:54.776Z,7.9
2023-04-13T10:54:56.235Z,7.9
2023-04-13T10:55:57.781Z,7.3
2023-04-13T10:56:59.359Z,7.4
2023-04-13T10:58:00.706Z,7.5
2023-04-13T10:59:02.719Z,7.5
2023-04-13T11:00:04.348Z,7.6
2023-04-13T11:01:06.023Z,7.6
2023-04-13T11:02:08.155Z,7.6
2023-04-13T11:03:11.203Z,7.6
2023-04-13T11:09:27.810Z,7.2
2023-04-13T11:10:29.274Z,7.1
2023-04-13T11:11:30.786Z,7.2
2023-04-13T11:12:32.441Z,7.2
2023-04-13T11:13:34.007Z,7.1
2023-04-13T11:14:35.478Z,7.1
2023-04-13T11:15:37.043Z,7.1
2023-04-13T11:16:39.010Z,7.1
2023-04-13T11:17:40.832Z,7.1
2023-04-13T11:18:42.517Z,7.2
2023-04-13T11:24:57.795Z,7.2
2023-04-13T11:27:01.385Z,7.1
2023-04-13T11:28:03.041Z,7.2
2023-04-13T11:29:04.674Z,7.2
2023-04-13T11:30:06.285Z,7.2
2023-04-13T11:31:07.882Z,7.2
2023-04-13T11:32:09.766Z,7.2
2023-04-13T11:33:11.667Z,7.2
2023-04-13T11:34:13.267Z,7.2
2023-04-13T11:35:14.992Z,7.2
2023-04-13T11:36:16.630Z,7.2
2023-04-13T11:37:18.408Z,7.2
2023-04-13T11:38:20.029Z,7.3
2023-04-13T11:39:21.451Z,7.3
2023-04-13T11:40:23.152Z,7.4
2023-04-13T11:41:24.681Z,7.5
2023-04-13T11:42:25.950Z,7.5
2023-04-13T11:43:27.363Z,7.6
2023-04-13T11:44:28.909Z,7.7
2023-04-13T11:45:30.476Z,7.8
2023-04-13T11:46:32.472Z,7.9
2023-04-13T11:47:34.232Z,7.9
2023-04-13T11:48:35.795Z,7.9
2023-04-13T11:49:37.312Z,7.9
2023-04-13T11:50:38.869Z,7.9
2023-04-13T11:51:40.435Z,7.9
2023-04-13T11:52:42.105Z,7.9
2023-04-13T11:53:43.775Z,7.9
2023-04-13T11:54:45.324Z,7.9
2023-04-13T12:04:18.635Z,7.9
2023-04-13T12:05:21.183Z,7.9
2023-04-13T12:16:18.647Z,7.7
2023-04-13T12:23:29.879Z,7.7
2023-04-13T17:11:46.268Z,7.9
2023-04-13T17:12:47.854Z,7.8
2023-04-13T17:13:49.258Z,7.8
2023-04-13T17:14:51.399Z,7.8
2023-04-13T17:15:53.351Z,7.8
2023-04-13T17:16:54.914Z,7.8
2023-04-13T17:17:56.709Z,7.8
2023-04-13T17:20:01.392Z,7.8
2023-04-13T17:21:03.013Z,7.8
2023-04-13T17:22:04.365Z,7.8
2023-04-13T17:23:06.198Z,7.8
2023-04-13T17:24:07.813Z,7.8
2023-04-13T17:25:09.370Z,7.8
2023-04-13T17:26:10.925Z,7.8
2023-04-13T17:27:12.405Z,7.8
2023-04-13T17:28:13.983Z,7.8
2023-04-13T17:29:15.407Z,7.8
2023-04-13T17:30:16.935Z,7.8
2023-04-13T17:31:19.019Z,7.8
2023-04-13T17:32:21.731Z,7.8
2023-04-13T17:33:23.213Z,7.8
2023-04-13T17:34:24.682Z,7.8
2023-04-13T17:35:26.249Z,7.8
2023-04-13T17:36:27.805Z,7.8
2023-04-13T17:37:29.368Z,7.8
2023-04-13T17:38:30.997Z,7.9
2023-04-13T17:39:32.407Z,7.9
2023-04-13T17:40:33.956Z,7.9
2023-04-13T17:41:35.493Z,7.9
2023-04-13T17:42:37.003Z,7.9
2023-04-13T17:43:38.542Z,7.9
2023-04-13T17:44:40.114Z,7.9
2023-04-13T17:45:42.463Z,7.2
2023-04-13T17:46:44.052Z,7.5
2023-04-13T17:47:45.759Z,7.9
2023-04-13T17:48:47.916Z,7.9
2023-04-13T17:49:49.399Z,7.9
2023-04-13T17:50:51.018Z,7.9
2023-04-13T17:51:52.670Z,7.9
2023-04-13T17:52:54.238Z,7.8
2023-04-13T17:53:55.855Z,7.8
2023-04-13T17:54:57.321Z,7.7
2023-04-13T17:55:58.756Z,7.5
2023-04-13T17:57:00.472Z,7.4
2023-04-13T17:58:02.090Z,7.2
2023-04-13T17:59:04.005Z,7.1
2023-04-13T18:00:05.611Z,7.1
2023-04-13T18:01:07.510Z,7.1
2023-04-13T18:02:09.787Z,7.1
2023-04-13T18:03:12.589Z,7.1
2023-04-13T18:04:15.354Z,7.1
2023-04-13T18:05:17.109Z,7.1
2023-04-13T18:06:18.619Z,7.1
2023-04-13T18:07:20.181Z,7.1
2023-04-13T18:08:21.602Z,7.1
2023-04-13T18:09:23.015Z,7.1
2023-04-13T18:10:24.462Z,7.1
2023-04-13T18:11:25.848Z,7.1
2023-04-13T18:12:27.274Z,7.2
2023-04-13T18:13:28.853Z,7.2
2023-04-13T18:14:30.132Z,7.2
2023-04-13T18:15:31.635Z,7.2
2023-04-13T18:16:33.670Z,7.2
2023-04-13T18:17:35.609Z,7.2
2023-04-13T18:18:37.166Z,7.2
2023-04-13T18:19:38.530Z,7.2
2023-04-13T18:20:40.032Z,7.2
2023-04-13T18:21:41.516Z,7.2
2023-04-13T18:22:43.162Z,7.3
2023-04-13T18:23:44.700Z,7.3
2023-04-13T18:24:46.087Z,7.3
2023-04-13T18:25:47.615Z,7.4
2023-04-13T18:26:48.890Z,7.5
2023-04-13T18:27:50.466Z,7.5
2023-04-13T18:28:52.055Z,7.6
2023-04-13T18:29:53.448Z,7.7
2023-04-13T18:30:54.877Z,7.7
2023-04-13T18:31:56.695Z,7.8
2023-04-13T18:32:58.770Z,7.9
2023-04-13T18:34:02.264Z,7.9
2023-04-13T18:35:04.019Z,7.9
2023-04-13T18:36:05.783Z,7.9
2023-04-13T18:37:07.456Z,7.9
2023-04-13T18:38:08.965Z,7.9
2023-04-13T18:39:10.703Z,7.9
2023-04-13T18:40:12.801Z,7.9
2023-04-13T18:41:14.328Z,7.9
2023-04-13T18:42:15.681Z,7.9
2023-04-13T18:43:17.161Z,7.9
2023-04-13T18:44:18.710Z,7.9
2023-04-13T18:45:20.204Z,7.9
2023-04-13T18:46:21.872Z,7.9
2023-04-13T18:47:23.720Z,7.9
2023-04-13T18:48:25.329Z,7.9
2023-04-13T18:49:26.757Z,7.9
2023-04-13T18:50:28.179Z,7.9
2023-04-13T18:51:29.744Z,7.9
2023-04-13T18:52:31.506Z,7.9
2023-04-13T18:53:33.032Z,7.9
2023-04-13T18:54:34.182Z,7.9
2023-04-13T18:55:35.693Z,7.9
2023-04-13T18:56:37.135Z,7.9
2023-04-13T18:57:38.728Z,7.9
2023-04-13T18:58:40.280Z,7.9
2023-04-13T18:59:41.825Z,7.9
2023-04-13T19:00:43.291Z,7.9
2023-04-13T19:01:45.304Z,7.9
2023-04-13T19:02:48.768Z,7.9
2023-04-13T19:03:52.013Z,7.9
2023-04-13T19:04:54.339Z,7.9
2023-04-13T19:05:55.641Z,7.9
2023-04-13T19:06:57.173Z,7.9
2023-04-13T19:07:59.051Z,7.9
2023-04-13T19:09:00.649Z,7.9
2023-04-13T19:10:02.246Z,7.9
2023-04-13T19:11:03.867Z,7.9
2023-04-13T19:12:05.441Z,7.9
2023-04-13T19:13:07.180Z,7.9
2023-04-13T19:14:08.610Z,7.9
2023-04-13T19:15:09.951Z,7.9
2023-04-13T19:16:11.445Z,7.9
2023-04-13T19:17:13.018Z,7.9
2023-04-13T19:18:14.453Z,7.9
2023-04-13T19:19:16.391Z,7.9
2023-04-13T19:20:17.957Z,7.9
2023-04-13T19:21:19.401Z,7.9
2023-04-13T19:22:21.037Z,7.9
2023-04-13T19:23:22.707Z,7.9
2023-04-13T19:24:24.448Z,7.9
2023-04-13T19:25:25.960Z,7.9
2023-04-13T19:26:27.593Z,7.8
2023-04-13T19:27:29.154Z,7.8
2023-04-13T19:28:30.780Z,7.9
2023-04-13T19:29:32.421Z,7.9
2023-04-13T19:30:33.985Z,7.9
2023-04-13T19:31:35.783Z,7.9
2023-04-13T19:32:37.582Z,7.9
2023-04-13T19:33:39.326Z,7.9
2023-04-13T19:34:40.926Z,7.9
2023-04-13T19:35:42.480Z,7.9
2023-04-13T19:36:44.059Z,7.9
2023-04-13T19:37:45.663Z,7.9
2023-04-13T19:38:47.308Z,7.9
2023-04-13T19:39:48.897Z,7.9
2023-04-13T19:40:50.490Z,7.9
2023-04-13T19:41:52.057Z,7.9
2023-04-13T19:42:53.693Z,7.9
2023-04-13T19:43:55.212Z,7.9
2023-04-13T19:44:56.779Z,7.9
2023-04-13T19:45:58.538Z,7.9
2023-04-13T19:46:59.993Z,7.9
2023-04-13T19:48:01.909Z,7.9
2023-04-13T19:49:03.568Z,7.9
2023-04-13T19:50:04.870Z,7.9
2023-04-13T19:51:06.489Z,7.9
2023-04-13T19:52:07.915Z,7.9
2023-04-13T19:53:09.540Z,7.9
2023-04-13T19:54:10.887Z,7.9
2023-04-13T19:55:12.685Z,7.9
2023-04-13T19:56:14.224Z,7.9
2023-04-13T19:57:15.801Z,7.9
2023-04-13T19:58:17.249Z,7.9
2023-04-13T19:59:18.684Z,7.9
2023-04-13T20:00:21.274Z,7.9
2023-04-13T20:01:23.184Z,7.9
2023-04-13T20:02:25.607Z,7.9
2023-04-13T20:03:28.575Z,7.9
2023-04-13T20:04:31.152Z,7.9
2023-04-13T20:05:32.756Z,7.9
2023-04-13T20:06:34.367Z,7.9
2023-04-13T20:07:35.992Z,7.9
2023-04-13T20:08:37.598Z,7.9
2023-04-13T20:09:39.055Z,7.9
2023-04-13T20:10:40.524Z,7.9
2023-04-13T20:11:42.064Z,7.9
2023-04-13T20:12:43.637Z,7.9
2023-04-13T20:13:45.178Z,7.9
2023-04-13T20:14:46.738Z,7.9
2023-04-13T20:15:48.388Z,7.9
2023-04-13T20:16:50.016Z,7.8
2023-04-13T20:17:51.861Z,7.8
2023-04-13T20:18:53.545Z,7.8
2023-04-13T20:19:54.839Z,7.9
2023-04-13T20:20:56.388Z,7.9
2023-04-13T20:21:58.021Z,7.9
2023-04-13T20:22:59.547Z,7.9
2023-04-13T20:24:03.154Z,7.9
2023-04-13T20:25:04.916Z,7.9
2023-04-13T20:26:06.530Z,7.8
2023-04-13T20:27:08.087Z,7.8
2023-04-13T20:28:09.662Z,7.8
2023-04-13T20:29:11.215Z,7.8
2023-04-13T20:30:12.785Z,7.8
2023-04-13T20:31:14.440Z,7.8
2023-04-13T20:32:16.036Z,7.8
2023-04-13T20:33:17.465Z,7.8
2023-04-13T20:34:18.884Z,7.8
2023-04-13T20:35:20.491Z,7.8
2023-04-13T20:36:22.065Z,7.8
2023-04-13T20:37:23.624Z,7.8
2023-04-13T20:38:25.204Z,7.8
2023-04-13T20:39:27.480Z,7.8
2023-04-13T20:40:29.101Z,7.8
2023-04-13T20:41:30.901Z,7.8
2023-04-13T20:42:32.446Z,7.8
2023-04-13T20:43:33.988Z,7.8
2023-04-13T20:44:35.405Z,7.8
2023-04-13T20:45:36.991Z,7.8
2023-04-13T20:46:38.690Z,7.6
2023-04-13T20:47:40.303Z,7.7
2023-04-13T20:48:49.961Z,7.7
2023-04-13T20:49:51.665Z,7.7
2023-04-13T20:50:53.047Z,7.7
2023-04-13T20:51:54.629Z,7.8
2023-04-13T20:52:56.190Z,7.8
2023-04-13T20:53:58.509Z,7.8
2023-04-13T20:55:00.420Z,7.8
2023-04-13T20:56:02.060Z,7.8
2023-04-13T20:57:03.624Z,7.8
2023-04-13T20:58:05.150Z,7.8
2023-04-13T20:59:06.697Z,7.8
2023-04-13T21:05:25.581Z,7.8
2023-04-13T21:06:27.125Z,7.8
2023-04-13T21:07:28.528Z,7.8
2023-04-13T21:08:30.130Z,7.8
2023-04-13T21:09:31.681Z,7.8
2023-04-13T21:10:33.233Z,7.8
2023-04-13T21:11:34.584Z,7.8
2023-04-13T21:12:36.146Z,7.9
2023-04-13T21:13:37.561Z,7.9
2023-04-13T21:14:39.144Z,7.9
2023-04-13T21:15:40.709Z,7.9
2023-04-13T21:16:42.204Z,7.9
2023-04-13T21:17:44.012Z,7.9
2023-04-13T21:18:45.432Z,7.9
2023-04-13T21:19:46.976Z,7.9
2023-04-13T21:20:48.425Z,7.9
2023-04-13T21:21:49.904Z,7.9
2023-04-13T21:22:51.510Z,7.9
2023-04-13T21:23:53.099Z,7.9
2023-04-13T21:24:54.542Z,7.9
2023-04-13T21:25:56.123Z,7.9
2023-04-13T21:26:57.777Z,7.9
2023-04-13T21:27:59.317Z,7.9
2023-04-13T21:29:00.870Z,7.9
2023-04-13T21:30:02.632Z,7.9
2023-04-13T21:31:04.183Z,7.9
2023-04-13T21:32:06.010Z,7.9
2023-04-13T21:33:07.992Z,7.9
2023-04-13T21:34:09.854Z,7.9
2023-04-13T21:35:11.431Z,7.9
2023-04-13T21:49:45.294Z,7.9
2023-04-13T21:50:47.087Z,7.9
2023-04-13T21:51:48.593Z,7.9
2023-04-13T21:52:50.133Z,7.9
2023-04-13T21:53:51.667Z,7.9
2023-04-13T21:54:53.185Z,7.9
2023-04-13T21:55:54.695Z,7.9
2023-04-13T21:56:56.240Z,7.9
2023-04-13T21:57:57.807Z,7.9
2023-04-13T21:59:00.731Z,7.9
2023-04-13T22:51:45.143Z,7.9
2023-04-13T22:52:46.340Z,7.9
2023-04-13T22:53:47.887Z,7.9
2023-04-13T22:54:49.282Z,7.9
2023-04-13T22:55:50.802Z,7.9
2023-04-13T22:56:52.366Z,7.9
2023-04-13T22:57:53.797Z,7.9
2023-04-13T22:58:55.388Z,7.1
2023-04-13T22:59:56.957Z,7.3
2023-04-13T23:00:58.541Z,7.4
2023-04-13T23:02:00.544Z,7.4
2023-04-13T23:03:03.579Z,7.5
2023-04-13T23:06:09.552Z,7.6
2023-04-13T23:07:10.984Z,7.7
2023-04-13T23:08:12.552Z,7.7
2023-04-13T23:09:13.948Z,7.8
2023-04-13T23:12:21.022Z,7.9
2023-04-13T23:13:22.546Z,7.9
2023-04-13T23:14:24.122Z,7.9
2023-04-13T23:15:25.592Z,7.8
2023-04-13T23:16:27.623Z,7.8
2023-04-13T23:18:31.261Z,7.8
2023-04-13T23:19:32.785Z,7.8
2023-04-13T23:20:34.249Z,7.8
2023-04-13T23:21:35.762Z,7.8
2023-04-13T23:22:37.299Z,7.8
2023-04-13T23:23:38.743Z,7.8
2023-04-13T23:24:40.145Z,7.8
2023-04-13T23:25:41.686Z,7.9
2023-04-13T23:26:42.961Z,7.8
2023-04-13T23:27:44.359Z,7.8
2023-04-13T23:28:45.620Z,7.8
2023-04-13T23:29:47.336Z,7.8
2023-04-13T23:30:48.918Z,7.9
2023-04-13T23:31:50.855Z,7.9
2023-04-13T23:32:52.837Z,7.9
2023-04-13T23:33:56.232Z,7.9
2023-04-13T23:34:57.768Z,7.9
2023-04-13T23:35:59.179Z,7.9
2023-04-13T23:37:00.734Z,7.9
2023-04-13T23:38:02.460Z,7.9
2023-04-13T23:39:04.219Z,7.9
2023-04-13T23:40:05.672Z,7.9
2023-04-13T23:41:07.265Z,7.9
2023-04-13T23:42:08.573Z,7.9
2023-04-13T23:43:10.152Z,7.9
2023-04-13T23:44:11.693Z,7.9
2023-04-13T23:45:13.276Z,7.9
2023-04-13T23:46:15.017Z,7.9
2023-04-13T23:47:16.919Z,7.9
2023-04-13T23:48:18.443Z,7.8
2023-04-13T23:49:19.820Z,7.8
2023-04-13T23:50:21.233Z,7.8
2023-04-13T23:51:22.787Z,7.8
2023-04-13T23:52:24.316Z,7.7
2023-04-13T23:53:25.852Z,7.7
2023-04-13T23:54:27.287Z,7.7
2023-04-13T23:55:28.845Z,7.7
2023-04-13T23:56:30.402Z,7.6
2023-04-13T23:57:31.775Z,7.6
2023-04-13T23:58:33.337Z,7.6
2023-04-13T23:59:34.631Z,7.6
